createdAt,value
2017-07-02T00:01:00.594Z,4
2017-07-02T00:11:00.678Z,4
2017-07-02T00:21:00.664Z,4
2017-07-02T00:31:00.684Z,4
2017-07-02T00:41:00.665Z,4
2017-07-02T00:51:00.680Z,4
2017-07-02T01:01:00.656Z,4
2017-07-02T01:11:00.658Z,0
2017-07-02T01:21:00.655Z,0
2017-07-02T01:31:00.704Z,0
2017-07-02T01:41:00.665Z,0
2017-07-02T01:51:00.604Z,0
2017-07-02T02:01:00.680Z,0
2017-07-02T02:11:00.616Z,0
2017-07-02T02:21:00.690Z,4
2017-07-02T02:31:00.668Z,4
2017-07-02T02:41:00.606Z,4
2017-07-02T02:51:00.690Z,16
2017-07-02T03:01:00.638Z,68
2017-07-02T03:11:00.600Z,164
2017-07-02T03:21:00.652Z,264
2017-07-02T03:31:00.616Z,376
2017-07-02T03:41:00.689Z,484
2017-07-02T03:51:00.632Z,864
2017-07-02T04:01:00.645Z,952
2017-07-02T04:11:00.680Z,1156
2017-07-02T04:21:00.604Z,1188
2017-07-02T04:31:00.573Z,1820
2017-07-02T04:41:00.645Z,2340
2017-07-02T04:51:00.606Z,3876
2017-07-02T05:01:00.678Z,3708
2017-07-02T05:11:00.639Z,3424
2017-07-02T05:21:00.588Z,3804
2017-07-02T05:31:00.668Z,4032
2017-07-02T05:41:00.601Z,9912
2017-07-02T05:51:00.583Z,13856
2017-07-02T06:01:00.689Z,11060
2017-07-02T06:11:00.611Z,9192
2017-07-02T06:21:00.683Z,4804
2017-07-02T06:31:00.633Z,6860
2017-07-02T06:41:00.912Z,9644
2017-07-02T06:51:00.640Z,7672
2017-07-02T07:01:00.629Z,7760
2017-07-02T07:11:00.700Z,6088
2017-07-02T07:21:00.638Z,3132
2017-07-02T07:31:00.672Z,9544
2017-07-02T07:41:00.684Z,3300
2017-07-02T07:51:00.629Z,2172
2017-07-02T08:01:00.694Z,5508
2017-07-02T08:11:00.684Z,9056
2017-07-02T08:21:00.651Z,6256
2017-07-02T08:31:00.706Z,7892
2017-07-02T08:41:00.661Z,6288
2017-07-02T08:51:00.740Z,5232
2017-07-02T09:01:00.669Z,11348
2017-07-02T09:11:00.607Z,8316
2017-07-02T09:21:00.766Z,7284
2017-07-02T09:31:00.670Z,7384
2017-07-02T09:41:00.611Z,8252
2017-07-02T09:51:02.651Z,7336
2017-07-02T10:01:00.673Z,7508
2017-07-02T10:11:00.678Z,7180
2017-07-02T10:21:00.641Z,10092
2017-07-02T10:31:00.677Z,6280
2017-07-02T10:41:00.662Z,4716
2017-07-02T10:51:00.721Z,4276
2017-07-02T11:01:00.894Z,3468
2017-07-02T11:11:00.784Z,4596
2017-07-02T11:21:00.702Z,10612
2017-07-02T11:31:00.654Z,14476
2017-07-02T11:41:01.227Z,9136
2017-07-02T11:51:00.622Z,14044
2017-07-02T12:01:00.610Z,18116
2017-07-02T12:11:00.604Z,17476
2017-07-02T12:21:00.659Z,5992
2017-07-02T12:31:00.628Z,12776
2017-07-02T12:41:00.632Z,7292
2017-07-02T12:51:00.650Z,11808
2017-07-02T13:01:00.625Z,12680
2017-07-02T13:11:00.632Z,5460
2017-07-02T13:21:00.681Z,10880
2017-07-02T13:31:00.687Z,8612
2017-07-02T13:41:00.631Z,5888
2017-07-02T13:51:00.631Z,5260
2017-07-02T14:01:00.727Z,9480
2017-07-02T14:11:00.628Z,8124
2017-07-02T14:21:00.669Z,7324
2017-07-02T14:31:00.641Z,3676
2017-07-02T14:41:00.857Z,3072
2017-07-02T14:51:00.628Z,5764
2017-07-02T15:01:00.787Z,4384
2017-07-02T15:11:00.868Z,7332
2017-07-02T15:21:01.663Z,3216
2017-07-02T15:31:00.639Z,4324
2017-07-02T15:41:00.660Z,3636
2017-07-02T15:51:00.673Z,5044
2017-07-02T16:01:00.684Z,3268
2017-07-02T16:11:01.236Z,3332
2017-07-02T16:21:00.750Z,2932
2017-07-02T16:31:00.698Z,2976
2017-07-02T16:41:03.056Z,3512
2017-07-02T16:51:01.286Z,2920
2017-07-02T17:01:00.677Z,2796
2017-07-02T17:11:00.715Z,2700
2017-07-02T17:21:00.736Z,2652
2017-07-02T17:31:00.750Z,2584
2017-07-02T17:41:00.716Z,2528
2017-07-02T17:51:00.689Z,2536
2017-07-02T18:11:00.727Z,2212
2017-07-02T18:51:00.799Z,1508
2017-07-02T19:01:01.422Z,1292
2017-07-02T19:11:13.250Z,1044
2017-07-02T19:21:02.091Z,792
2017-07-02T19:31:11.911Z,596
2017-07-02T19:41:04.522Z,380
2017-07-02T19:51:00.917Z,212
2017-07-02T20:01:07.958Z,100
2017-07-02T20:11:07.654Z,40
2017-07-02T20:21:02.174Z,16
2017-07-02T20:31:01.407Z,8
2017-07-02T20:51:45.113Z,4
2017-07-02T21:01:11.416Z,4
2017-07-02T21:11:05.351Z,4
2017-07-02T21:21:03.549Z,4
2017-07-02T21:31:05.059Z,4
2017-07-02T21:41:08.616Z,4
2017-07-02T21:51:00.960Z,0
2017-07-02T22:01:00.896Z,0
2017-07-02T22:11:00.849Z,0
2017-07-02T22:21:00.927Z,0
2017-07-02T22:31:01.054Z,0
2017-07-02T22:41:01.066Z,0
2017-07-02T22:51:00.996Z,0
2017-07-02T23:01:01.160Z,0
2017-07-02T23:11:01.029Z,0
2017-07-02T23:21:00.959Z,0
2017-07-02T23:31:01.120Z,0
2017-07-02T23:41:00.869Z,0
2017-07-02T23:51:01.968Z,0
